Time;durP1;ratioP1;P1;durP2;ratioP2;P2;SDS_P1;SDS_P2;PMS_P1;PMS_P2;Temp;Humidity;BMP_temperature;BMP_pressure;BME280_temperature;BME280_humidity;BME280_pressure;Samples;Min_cycle;Max_cycle;Signal;HPM_P1;HPM_P2
2022/09/13 00:00:07;;;;;;;7.18;4.85;;;11.20;99.90;;;;;;5029055;28;20044;-79
2022/09/13 00:02:32;;;;;;;7.45;4.80;;;11.20;99.90;;;;;;5028232;28;20038;-79
2022/09/13 00:04:58;;;;;;;7.45;5.22;;;11.20;99.90;;;;;;5028503;28;20044;-79
2022/09/13 00:07:23;;;;;;;12.07;5.50;;;11.20;99.90;;;;;;5029135;28;20466;-79
2022/09/13 00:09:49;;;;;;;5.25;4.65;;;11.20;99.90;;;;;;5029025;28;20033;-79
2022/09/13 00:12:15;;;;;;;6.20;4.45;;;11.20;99.90;;;;;;5028751;28;20043;-79
2022/09/13 00:14:40;;;;;;;10.98;4.53;;;11.10;99.90;;;;;;5028497;28;20116;-79
2022/09/13 00:17:06;;;;;;;8.65;4.70;;;11.10;99.90;;;;;;5028281;28;20025;-79
2022/09/13 00:19:32;;;;;;;7.85;4.07;;;11.10;99.90;;;;;;5028081;28;20135;-79
2022/09/13 00:21:58;;;;;;;5.05;4.43;;;11.00;99.90;;;;;;5028737;28;20037;-79
2022/09/13 00:24:24;;;;;;;8.15;4.90;;;11.00;99.90;;;;;;5028075;28;20029;-79
2022/09/13 00:26:49;;;;;;;7.43;4.22;;;10.90;99.90;;;;;;5028167;28;20151;-79
2022/09/13 00:29:15;;;;;;;5.18;4.00;;;10.90;99.90;;;;;;5028480;28;20046;-79
2022/09/13 00:31:41;;;;;;;11.35;4.30;;;10.90;99.90;;;;;;5027994;28;20033;-79
2022/09/13 00:34:06;;;;;;;7.00;4.03;;;10.90;99.90;;;;;;5028247;28;20036;-79
2022/09/13 00:36:32;;;;;;;9.27;4.60;;;10.90;99.90;;;;;;5027753;28;20025;-79
2022/09/13 00:38:59;;;;;;;7.93;4.20;;;10.80;99.90;;;;;;5027158;28;20462;-79
2022/09/13 00:41:25;;;;;;;9.20;4.05;;;10.80;99.90;;;;;;5027578;28;20497;-79
2022/09/13 00:43:59;;;;;;;6.55;3.90;;;10.80;99.90;;;;;;5027800;28;20049;-79
2022/09/13 00:46:34;;;;;;;4.82;3.70;;;10.80;99.90;;;;;;5028050;28;20025;-79
2022/09/13 00:49:22;;;;;;;8.57;3.60;;;10.70;99.90;;;;;;5027678;28;20029;-79
2022/09/13 00:51:53;;;;;;;5.95;4.07;;;10.60;99.90;;;;;;5027289;28;20083;-79
2022/09/13 00:54:22;;;;;;;6.70;3.80;;;10.60;99.90;;;;;;5027238;28;20033;-79
2022/09/13 00:56:53;;;;;;;10.70;4.13;;;10.50;99.90;;;;;;5027398;28;20387;-79
2022/09/13 00:59:24;;;;;;;8.23;4.50;;;10.50;99.90;;;;;;5028284;28;20034;-79
2022/09/13 01:01:53;;;;;;;7.75;4.00;;;10.50;99.90;;;;;;5027027;28;20398;-79
2022/09/13 01:04:21;;;;;;;5.00;3.70;;;10.40;99.90;;;;;;5027587;28;20087;-79
2022/09/13 01:06:49;;;;;;;7.95;4.28;;;10.40;99.90;;;;;;5027461;28;20124;-79
2022/09/13 01:09:14;;;;;;;6.70;4.20;;;10.40;99.90;;;;;;5027555;28;20056;-79
2022/09/13 01:11:49;;;;;;;6.30;4.00;;;10.40;99.90;;;;;;5027523;28;20829;-79
2022/09/13 01:14:17;;;;;;;8.07;4.10;;;10.40;99.90;;;;;;5027449;28;20056;-79
2022/09/13 01:16:43;;;;;;;6.97;3.78;;;10.40;99.90;;;;;;5027600;28;20033;-79
2022/09/13 01:19:09;;;;;;;7.32;4.15;;;10.40;99.90;;;;;;5027196;28;20037;-79
2022/09/13 01:21:56;;;;;;;8.85;3.88;;;10.30;99.90;;;;;;5027122;28;20038;-79
2022/09/13 01:24:34;;;;;;;6.45;3.95;;;10.30;99.90;;;;;;5026586;28;20033;-79
2022/09/13 01:27:34;;;;;;;7.57;3.97;;;10.30;99.90;;;;;;5027109;28;20041;-79
2022/09/13 01:30:14;;;;;;;4.72;3.90;;;10.30;99.90;;;;;;5027694;28;20560;-79
2022/09/13 01:33:07;;;;;;;6.57;3.90;;;10.30;99.90;;;;;;5027031;28;20481;-79
2022/09/13 01:35:45;;;;;;;6.10;3.97;;;10.20;99.90;;;;;;5026643;28;20048;-79
2022/09/13 01:38:27;;;;;;;5.00;4.03;;;10.20;99.90;;;;;;5027656;28;20030;-79
2022/09/13 01:41:04;;;;;;;5.18;3.65;;;10.20;99.90;;;;;;5027120;28;20021;-79
2022/09/13 01:43:59;;;;;;;5.60;3.80;;;10.10;99.90;;;;;;5026839;28;20029;-79
2022/09/13 01:46:30;;;;;;;5.70;3.60;;;10.10;99.90;;;;;;5027141;28;20025;-79
2022/09/13 01:49:18;;;;;;;7.85;4.30;;;10.10;99.90;;;;;;5026789;28;20048;-79
2022/09/13 01:51:51;;;;;;;6.43;3.60;;;10.00;99.90;;;;;;5026685;28;20033;-79
2022/09/13 01:54:38;;;;;;;4.60;3.53;;;10.10;99.90;;;;;;5027435;28;20370;-79
2022/09/13 01:57:18;;;;;;;5.10;3.53;;;10.00;99.90;;;;;;5027316;28;20050;-79
2022/09/13 02:00:00;;;;;;;4.00;3.45;;;10.00;99.90;;;;;;5027450;28;20068;-81
2022/09/13 02:02:32;;;;;;;7.40;3.67;;;10.00;99.90;;;;;;5026831;28;20034;-81
2022/09/13 02:05:10;;;;;;;4.32;2.95;;;10.00;99.90;;;;;;5026830;28;20382;-81
2022/09/13 02:07:45;;;;;;;7.22;3.65;;;10.00;99.90;;;;;;5027072;28;20501;-81
2022/09/13 02:10:25;;;;;;;4.80;3.40;;;9.90;99.90;;;;;;5027090;28;20041;-81
2022/09/13 02:12:52;;;;;;;6.53;3.60;;;9.90;99.90;;;;;;5026810;28;20042;-81
2022/09/13 02:15:23;;;;;;;4.13;3.40;;;9.90;99.90;;;;;;5027546;28;20052;-81
2022/09/13 02:18:05;;;;;;;5.07;3.25;;;9.90;99.90;;;;;;5026132;28;20075;-81
2022/09/13 02:20:34;;;;;;;6.78;3.53;;;9.90;99.90;;;;;;5026556;28;20072;-81
2022/09/13 02:23:06;;;;;;;8.90;3.35;;;9.80;99.90;;;;;;5026381;28;20033;-81
2022/09/13 02:25:36;;;;;;;5.18;3.30;;;9.90;99.90;;;;;;5026181;28;20443;-81
2022/09/13 02:28:06;;;;;;;5.97;3.67;;;9.80;99.90;;;;;;5026765;28;20067;-81
2022/09/13 02:30:39;;;;;;;8.27;4.22;;;9.80;99.90;;;;;;5026857;28;20370;-81
2022/09/13 02:33:09;;;;;;;7.63;3.45;;;9.90;99.90;;;;;;5025944;28;20028;-81
2022/09/13 02:35:48;;;;;;;5.57;3.80;;;9.80;99.90;;;;;;5026594;28;20060;-81
2022/09/13 02:38:23;;;;;;;4.63;3.65;;;9.80;99.90;;;;;;5026481;28;20494;-81
2022/09/13 02:40:58;;;;;;;4.53;3.70;;;9.90;99.90;;;;;;5026223;28;20030;-81
2022/09/13 02:43:27;;;;;;;;;;;9.80;99.90;;;;;;5026740;28;20076;-81
2022/09/13 02:46:19;;;;;;;5.60;3.65;;;9.80;99.90;;;;;;5026035;28;19931;-81
2022/09/13 02:48:57;;;;;;;10.30;3.97;;;9.80;99.90;;;;;;5026588;28;20435;-80
2022/09/13 02:51:46;;;;;;;4.73;3.57;;;9.80;99.90;;;;;;5026113;28;20065;-81
2022/09/13 02:54:55;;;;;;;4.77;3.40;;;9.90;99.90;;;;;;5021455;28;20037;-81
2022/09/13 02:57:32;;;;;;;4.50;3.38;;;9.80;99.90;;;;;;5026363;28;20511;-81
2022/09/13 02:59:58;;;;;;;6.78;3.70;;;9.80;99.90;;;;;;5026209;28;20029;-81
2022/09/13 03:02:30;;;;;;;10.10;4.25;;;9.90;99.90;;;;;;5028444;28;20338;-81
2022/09/13 03:04:57;;;;;;;5.00;3.38;;;9.80;99.90;;;;;;5031487;28;20080;-76
2022/09/13 03:07:22;;;;;;;5.85;3.40;;;9.80;99.90;;;;;;5031721;28;20438;-76
2022/09/13 03:09:53;;;;;;;5.57;3.53;;;9.80;99.90;;;;;;5031222;28;20033;-76
2022/09/13 03:12:50;;;;;;;9.60;4.10;;;9.80;99.90;;;;;;5031453;28;20029;-76
2022/09/13 03:15:45;;;;;;;6.53;3.05;;;9.90;99.90;;;;;;5031449;28;20032;-77
2022/09/13 03:18:32;;;;;;;6.28;3.58;;;9.80;99.90;;;;;;5031091;28;20053;-76
2022/09/13 03:21:14;;;;;;;18.83;4.13;;;9.80;99.90;;;;;;5031600;28;20031;-76
2022/09/13 03:24:09;;;;;;;6.00;3.50;;;9.80;99.90;;;;;;5031886;28;20478;-77
2022/09/13 03:26:43;;;;;;;6.97;3.13;;;9.80;99.90;;;;;;5031240;28;20029;-76
2022/09/13 03:29:20;;;;;;;5.67;3.17;;;9.80;99.90;;;;;;5031339;28;20094;-77
2022/09/13 03:31:54;;;;;;;8.60;3.33;;;9.80;99.90;;;;;;5031005;28;20033;-77
2022/09/13 03:34:51;;;;;;;4.30;3.40;;;9.80;99.90;;;;;;5029631;28;20029;-76
2022/09/13 03:37:33;;;;;;;5.18;3.28;;;9.80;99.90;;;;;;5029152;28;20024;-75
2022/09/13 03:40:06;;;;;;;5.20;3.45;;;9.80;99.90;;;;;;5028888;28;20060;-76
2022/09/13 03:42:54;;;;;;;6.10;3.65;;;9.80;99.90;;;;;;5029242;28;20033;-76
2022/09/13 03:45:23;;;;;;;6.90;3.37;;;9.80;99.90;;;;;;5028699;28;20564;-75
2022/09/13 03:47:50;;;;;;;4.88;3.42;;;9.80;99.90;;;;;;5029167;28;20394;-76
2022/09/13 03:50:20;;;;;;;3.50;2.97;;;9.80;99.90;;;;;;5029375;28;20061;-76
2022/09/13 03:52:50;;;;;;;7.57;3.47;;;9.70;99.90;;;;;;5029353;28;20072;-75
2022/09/13 03:55:21;;;;;;;6.18;3.53;;;9.70;99.90;;;;;;5029106;28;20044;-76
2022/09/13 03:57:46;;;;;;;7.28;3.40;;;9.70;99.90;;;;;;5028786;28;20026;-76
2022/09/13 04:00:14;;;;;;;6.38;4.60;;;9.70;99.90;;;;;;5028989;28;20022;-76
2022/09/13 04:02:39;;;;;;;5.38;3.20;;;9.70;99.90;;;;;;5029043;28;20029;-76
2022/09/13 04:05:05;;;;;;;5.90;3.53;;;9.70;99.90;;;;;;5028847;28;20386;-76
2022/09/13 04:07:31;;;;;;;5.22;3.05;;;9.70;99.90;;;;;;5028534;28;20025;-76
2022/09/13 04:09:56;;;;;;;4.47;3.13;;;9.70;99.90;;;;;;5028609;28;20534;-76
2022/09/13 04:12:22;;;;;;;5.17;3.10;;;9.70;99.90;;;;;;5028240;28;20032;-76
2022/09/13 04:14:48;;;;;;;6.17;2.97;;;9.60;99.90;;;;;;5028221;28;20026;-75
2022/09/13 04:17:13;;;;;;;5.93;2.78;;;9.60;99.90;;;;;;5027947;28;20078;-75
2022/09/13 04:19:40;;;;;;;3.78;3.00;;;9.60;99.90;;;;;;5028231;28;20033;-75
2022/09/13 04:22:05;;;;;;;6.90;2.90;;;9.60;99.90;;;;;;5028514;28;20033;-76
2022/09/13 04:24:31;;;;;;;5.83;3.13;;;9.60;99.90;;;;;;5028018;28;20033;-76
2022/09/13 04:26:57;;;;;;;7.53;3.28;;;9.60;99.90;;;;;;5028710;28;20036;-76
2022/09/13 04:29:24;;;;;;;5.57;3.33;;;9.60;99.90;;;;;;5028209;28;20057;-76
2022/09/13 04:31:51;;;;;;;4.50;2.83;;;9.60;99.90;;;;;;5027942;28;20034;-76
2022/09/13 04:34:17;;;;;;;6.53;3.00;;;9.60;99.90;;;;;;5028207;28;20030;-76
2022/09/13 04:36:44;;;;;;;12.17;4.10;;;9.70;99.90;;;;;;5027634;28;20075;-76
2022/09/13 04:39:12;;;;;;;7.77;2.80;;;9.70;99.90;;;;;;5028371;28;20029;-76
2022/09/13 04:41:39;;;;;;;6.00;3.00;;;9.70;99.90;;;;;;5028291;28;20502;-76
2022/09/13 04:44:04;;;;;;;4.80;3.10;;;9.70;99.90;;;;;;5028136;28;20028;-76
2022/09/13 04:46:30;;;;;;;6.70;2.87;;;9.70;99.90;;;;;;5026169;28;20029;-76
2022/09/13 04:48:56;;;;;;;5.23;2.93;;;9.70;99.90;;;;;;5027758;28;20037;-76
2022/09/13 04:51:22;;;;;;;5.82;3.13;;;9.70;99.90;;;;;;5028134;28;20356;-75
2022/09/13 04:53:55;;;;;;;4.03;2.78;;;9.70;99.90;;;;;;5027665;28;20028;-75
2022/09/13 04:56:22;;;;;;;6.20;3.22;;;9.70;99.90;;;;;;5027958;28;20049;-75
2022/09/13 04:58:50;;;;;;;3.87;2.70;;;9.70;99.90;;;;;;5027880;28;20088;-76
2022/09/13 05:01:16;;;;;;;6.17;3.27;;;9.80;99.90;;;;;;5026957;28;20101;-76
2022/09/13 05:03:41;;;;;;;7.13;3.20;;;9.80;99.90;;;;;;5027871;28;20443;-75
2022/09/13 05:06:09;;;;;;;3.27;2.77;;;9.80;99.90;;;;;;5028035;28;20045;-76
2022/09/13 05:08:36;;;;;;;6.05;2.85;;;9.80;99.90;;;;;;5028435;28;20651;-77
2022/09/13 05:11:02;;;;;;;3.80;2.72;;;9.80;99.90;;;;;;5029472;28;20139;-76
2022/09/13 05:13:28;;;;;;;3.95;2.67;;;9.90;99.90;;;;;;5029213;28;20029;-77
2022/09/13 05:15:56;;;;;;;5.63;3.10;;;9.90;99.90;;;;;;5029431;28;20129;-76
2022/09/13 05:18:24;;;;;;;7.33;3.10;;;9.90;99.90;;;;;;5028971;28;20057;-76
2022/09/13 05:20:54;;;;;;;5.77;2.80;;;10.00;99.90;;;;;;5029139;28;20021;-76
2022/09/13 05:23:19;;;;;;;3.50;2.80;;;10.00;99.90;;;;;;5029601;28;20052;-76
2022/09/13 05:25:46;;;;;;;6.35;2.53;;;10.10;99.90;;;;;;5028757;28;20061;-77
2022/09/13 05:28:11;;;;;;;3.40;2.35;;;10.10;99.90;;;;;;5029175;28;20036;-76
2022/09/13 05:30:37;;;;;;;6.07;2.95;;;10.20;99.90;;;;;;5029059;28;20033;-76
2022/09/13 05:33:03;;;;;;;5.78;2.40;;;10.20;99.90;;;;;;5028932;28;20389;-77
2022/09/13 05:35:28;;;;;;;4.78;2.67;;;10.30;99.90;;;;;;5029134;28;20378;-76
2022/09/13 05:37:54;;;;;;;5.28;2.50;;;10.30;99.90;;;;;;5028827;28;20481;-76
2022/09/13 05:40:19;;;;;;;7.95;2.55;;;10.40;99.90;;;;;;5029058;28;20025;-76
2022/09/13 05:42:45;;;;;;;5.43;2.20;;;10.50;99.90;;;;;;5028791;28;20041;-76
2022/09/13 05:45:10;;;;;;;5.18;2.42;;;10.50;99.90;;;;;;5026855;28;20045;-76
2022/09/13 05:47:36;;;;;;;3.95;2.33;;;10.60;99.90;;;;;;5027857;28;20033;-76
2022/09/13 05:50:02;;;;;;;5.85;2.60;;;10.60;99.90;;;;;;5027478;28;20149;-76
2022/09/13 05:52:27;;;;;;;5.47;2.42;;;10.70;99.90;;;;;;5026665;28;20477;-76
2022/09/13 05:54:53;;;;;;;6.97;2.20;;;10.70;99.90;;;;;;5027365;28;20026;-76
2022/09/13 05:57:18;;;;;;;3.63;2.17;;;10.80;99.90;;;;;;5026385;28;20056;-76
2022/09/13 05:59:44;;;;;;;6.13;2.28;;;10.90;99.90;;;;;;5027257;28;20029;-76
2022/09/13 06:02:09;;;;;;;5.25;2.10;;;10.90;99.90;;;;;;5026648;28;20129;-76
2022/09/13 06:04:35;;;;;;;4.32;2.08;;;11.00;99.90;;;;;;5026753;28;20104;-76
2022/09/13 06:07:00;;;;;;;3.33;2.10;;;11.10;99.90;;;;;;5026911;28;20107;-76
2022/09/13 06:09:26;;;;;;;10.20;2.42;;;11.20;99.90;;;;;;5026517;28;20033;-75
2022/09/13 06:11:51;;;;;;;8.85;2.22;;;11.30;99.90;;;;;;5026813;28;20037;-76
2022/09/13 06:14:17;;;;;;;5.22;2.03;;;11.40;99.90;;;;;;5026728;28;20057;-76
2022/09/13 06:16:42;;;;;;;2.78;2.20;;;11.50;99.90;;;;;;5026616;28;20035;-76
2022/09/13 06:19:08;;;;;;;3.40;1.98;;;11.60;99.90;;;;;;5026518;28;20025;-76
2022/09/13 06:21:33;;;;;;;5.32;1.60;;;11.70;99.90;;;;;;5027246;28;20037;-75
2022/09/13 06:23:59;;;;;;;4.70;1.95;;;11.80;99.90;;;;;;5027367;28;20029;-76
2022/09/13 06:26:27;;;;;;;5.70;1.70;;;12.00;99.90;;;;;;5026270;28;20034;-76
2022/09/13 06:28:54;;;;;;;2.92;1.88;;;12.10;99.90;;;;;;5027141;28;20036;-76
2022/09/13 06:31:23;;;;;;;3.97;1.80;;;12.20;99.90;;;;;;5027556;28;20025;-76
2022/09/13 06:33:53;;;;;;;3.78;2.00;;;12.30;99.90;;;;;;5026988;28;20112;-76
2022/09/13 06:36:19;;;;;;;3.10;1.85;;;12.50;99.90;;;;;;5027460;28;20478;-76
2022/09/13 06:38:46;;;;;;;10.68;1.88;;;12.60;99.90;;;;;;5030192;28;20032;-76
2022/09/13 06:41:14;;;;;;;5.47;2.10;;;12.70;99.90;;;;;;5030416;28;20032;-76
2022/09/13 06:43:40;;;;;;;4.10;1.80;;;12.80;99.90;;;;;;5030121;28;20129;-76
2022/09/13 06:46:17;;;;;;;2.60;1.60;;;13.00;99.90;;;;;;5030429;28;20052;-76
2022/09/13 06:48:44;;;;;;;6.68;1.92;;;13.10;99.90;;;;;;5029942;28;20037;-76
2022/09/13 06:51:12;;;;;;;3.28;1.77;;;13.30;99.90;;;;;;5030438;28;20509;-76
2022/09/13 06:53:38;;;;;;;2.15;1.63;;;13.40;99.90;;;;;;5030163;28;20083;-76
2022/09/13 06:56:05;;;;;;;3.78;1.58;;;13.50;99.90;;;;;;5029793;28;20363;-76
2022/09/13 06:58:32;;;;;;;3.22;1.90;;;13.60;99.90;;;;;;5030367;28;20030;-76
2022/09/13 07:01:24;;;;;;;3.80;1.65;;;13.80;99.90;;;;;;5030211;28;20057;-76
2022/09/13 07:03:53;;;;;;;3.88;1.70;;;14.00;99.90;;;;;;5029033;28;20073;-76
2022/09/13 07:06:22;;;;;;;3.50;1.38;;;14.20;99.90;;;;;;5030346;28;20059;-76
2022/09/13 07:08:49;;;;;;;4.75;1.73;;;14.30;99.90;;;;;;5030471;28;20509;-76
2022/09/13 07:11:17;;;;;;;4.43;1.55;;;14.40;99.90;;;;;;5029581;28;20029;-76
2022/09/13 07:13:50;;;;;;;3.60;1.52;;;14.50;99.90;;;;;;5029586;28;20415;-76
2022/09/13 07:16:17;;;;;;;2.67;1.55;;;14.70;99.90;;;;;;5029708;28;20029;-76
2022/09/13 07:18:43;;;;;;;5.47;1.70;;;14.80;99.90;;;;;;5029624;28;20036;-76
2022/09/13 07:21:10;;;;;;;3.03;1.67;;;15.00;99.90;;;;;;5029800;28;20037;-76
2022/09/13 07:23:38;;;;;;;2.30;1.40;;;15.20;99.90;;;;;;5029605;28;20481;-76
2022/09/13 07:26:05;;;;;;;3.05;1.92;;;15.30;99.90;;;;;;5029677;28;20025;-76
2022/09/13 07:28:32;;;;;;;6.82;1.60;;;15.40;99.90;;;;;;5029305;28;20044;-76
2022/09/13 07:31:14;;;;;;;5.30;1.42;;;15.60;99.90;;;;;;5029728;28;20393;-76
2022/09/13 07:33:41;;;;;;;3.78;1.40;;;15.70;99.90;;;;;;5029225;28;20616;-76
2022/09/13 07:36:10;;;;;;;2.53;1.55;;;15.90;99.90;;;;;;5029256;28;20390;-76
2022/09/13 07:38:40;;;;;;;2.80;1.30;;;16.10;99.90;;;;;;5029209;28;20481;-76
2022/09/13 07:41:16;;;;;;;3.30;1.45;;;16.30;99.90;;;;;;5028105;28;20413;-76
2022/09/13 07:43:42;;;;;;;4.05;1.42;;;16.40;99.90;;;;;;5029543;28;20347;-76
2022/09/13 07:46:13;;;;;;;2.92;1.52;;;16.50;99.90;;;;;;5029541;28;20371;-76
2022/09/13 07:48:40;;;;;;;6.05;1.70;;;16.70;99.90;;;;;;5028982;28;20488;-76
2022/09/13 07:51:14;;;;;;;5.70;1.55;;;16.80;99.90;;;;;;5029322;28;20044;-76
2022/09/13 07:53:42;;;;;;;4.25;1.50;;;16.90;99.90;;;;;;5029499;28;20470;-76
2022/09/13 07:56:20;;;;;;;4.07;1.45;;;17.10;99.90;;;;;;5028959;28;20049;-76
2022/09/13 07:58:47;;;;;;;3.53;1.50;;;17.30;99.90;;;;;;5029020;28;20041;-76
2022/09/13 08:01:20;;;;;;;2.90;1.60;;;17.50;99.90;;;;;;5029015;28;20092;-76
2022/09/13 08:03:53;;;;;;;5.97;1.50;;;17.70;99.90;;;;;;5029152;28;20072;-76
2022/09/13 08:06:19;;;;;;;4.00;1.40;;;17.90;99.90;;;;;;5028939;28;20033;-76
2022/09/13 08:08:44;;;;;;;8.82;1.48;;;18.10;99.90;;;;;;5028894;28;20355;-76
2022/09/13 08:11:23;;;;;;;2.15;1.27;;;18.30;99.90;;;;;;5028432;28;20113;-76
2022/09/13 08:13:51;;;;;;;3.53;1.70;;;18.40;99.90;;;;;;5028233;28;20144;-76
2022/09/13 08:16:18;;;;;;;3.75;1.50;;;18.70;99.90;;;;;;5028680;28;20356;-76
2022/09/13 08:18:46;;;;;;;3.33;1.30;;;18.70;99.90;;;;;;5028902;28;20044;-76
2022/09/13 08:21:12;;;;;;;3.20;1.40;;;18.80;99.90;;;;;;5028275;28;20436;-76
2022/09/13 08:23:37;;;;;;;3.60;1.38;;;18.80;99.90;;;;;;5028553;28;20033;-76
2022/09/13 08:26:05;;;;;;;3.83;1.20;;;18.90;99.90;;;;;;5028147;28;20091;-76
2022/09/13 08:28:31;;;;;;;2.72;1.35;;;19.00;99.90;;;;;;5028856;28;20033;-76
2022/09/13 08:31:03;;;;;;;2.50;1.20;;;19.00;99.90;;;;;;5027918;28;20029;-77
2022/09/13 08:33:29;;;;;;;2.17;1.40;;;19.10;99.90;;;;;;5028002;28;20030;-76
2022/09/13 08:35:54;;;;;;;2.38;1.38;;;19.20;99.90;;;;;;5029129;28;20034;-77
2022/09/13 08:38:20;;;;;;;4.20;1.38;;;19.20;99.90;;;;;;5027865;28;20065;-76
2022/09/13 08:40:53;;;;;;;4.03;1.40;;;19.30;99.90;;;;;;5028051;28;20036;-76
2022/09/13 08:43:56;;;;;;;4.88;1.90;;;19.40;99.90;;;;;;5028149;28;20076;-77
2022/09/13 08:46:33;;;;;;;5.72;1.30;;;19.50;99.90;;;;;;5026443;28;20068;-77
2022/09/13 08:49:05;;;;;;;2.90;1.30;;;19.50;99.90;;;;;;5027821;28;20478;-77
2022/09/13 08:51:39;;;;;;;2.83;1.23;;;19.70;99.90;;;;;;5026518;28;20033;-77
2022/09/13 08:54:05;;;;;;;2.25;1.20;;;19.80;99.90;;;;;;5027917;28;20033;-76
2022/09/13 08:57:08;;;;;;;2.47;1.38;;;20.00;99.90;;;;;;5028010;28;20123;-76
2022/09/13 09:00:02;;;;;;;2.90;1.40;;;20.30;99.90;;;;;;5027581;28;20029;-76
2022/09/13 09:02:44;;;;;;;2.42;1.20;;;20.50;99.90;;;;;;5027452;28;20037;-76
2022/09/13 09:05:18;;;;;;;2.60;1.17;;;20.80;99.90;;;;;;5027553;28;20052;-76
2022/09/13 09:07:50;;;;;;;4.70;1.20;;;21.00;99.90;;;;;;5027864;28;20044;-77
2022/09/13 09:10:23;;;;;;;2.78;1.80;;;21.10;99.90;;;;;;5028022;28;20037;-76
2022/09/13 09:13:13;;;;;;;5.10;1.23;;;21.20;99.90;;;;;;5027083;28;20041;-77
2022/09/13 09:15:46;;;;;;;3.28;1.27;;;21.40;99.90;;;;;;5027915;28;20029;-76
2022/09/13 09:18:15;;;;;;;2.67;1.20;;;21.60;99.90;;;;;;5027749;28;20031;-77
2022/09/13 09:20:52;;;;;;;4.85;1.23;;;21.80;99.90;;;;;;5027281;28;20025;-77
2022/09/13 09:23:25;;;;;;;1.67;1.13;;;22.00;99.90;;;;;;5027686;28;20423;-77
2022/09/13 09:25:56;;;;;;;3.23;1.20;;;22.20;99.90;;;;;;5027298;28;20026;-76
2022/09/13 09:28:22;;;;;;;1.70;0.90;;;22.50;99.90;;;;;;5027078;28;20284;-77
2022/09/13 09:30:50;;;;;;;2.53;1.00;;;22.70;99.90;;;;;;5027548;28;20088;-77
2022/09/13 09:33:42;;;;;;;2.17;0.88;;;22.80;99.90;;;;;;5027359;28;20041;-76
2022/09/13 09:36:07;;;;;;;1.35;1.00;;;23.00;99.90;;;;;;5027792;28;20029;-77
2022/09/13 09:38:42;;;;;;;6.00;1.10;;;23.30;99.90;;;;;;5027597;28;20029;-76
2022/09/13 09:41:24;;;;;;;3.58;1.20;;;23.50;99.90;;;;;;5028043;28;20485;-78
2022/09/13 09:44:01;;;;;;;4.95;1.48;;;23.60;99.90;;;;;;5028699;28;20138;-76
2022/09/13 09:46:31;;;;;;;1.90;1.20;;;23.70;99.90;;;;;;5027271;28;20146;-80
2022/09/13 09:52:05;;;;;;;1.20;1.08;;;24.00;99.90;;;;;;5028122;28;20040;-77
2022/09/13 09:54:33;;;;;;;4.25;1.00;;;24.10;99.90;;;;;;5029609;28;20081;-77
2022/09/13 09:56:59;;;;;;;6.50;1.08;;;24.10;99.90;;;;;;5028331;28;20045;-77
2022/09/13 09:59:30;;;;;;;5.20;1.02;;;24.10;99.90;;;;;;5028808;28;20030;-77
2022/09/13 10:01:56;;;;;;;3.47;0.90;;;24.20;99.90;;;;;;5029045;28;20093;-77
2022/09/13 10:04:23;;;;;;;1.40;0.95;;;24.30;99.90;;;;;;5028809;28;20148;-77
2022/09/13 10:06:50;;;;;;;3.58;1.20;;;24.40;99.90;;;;;;5029130;28;20033;-77
2022/09/13 10:09:20;;;;;;;3.22;0.93;;;24.60;99.90;;;;;;5028929;28;20030;-76
2022/09/13 10:11:55;;;;;;;3.50;1.30;;;24.80;99.90;;;;;;5032031;28;20041;-77
2022/09/13 10:14:44;;;;;;;3.33;0.95;;;24.90;99.90;;;;;;5032428;28;20026;-76
2022/09/13 10:17:25;;;;;;;4.03;0.90;;;24.90;99.90;;;;;;5031664;28;20076;-76
2022/09/13 10:20:00;;;;;;;2.78;1.00;;;25.00;99.90;;;;;;5029972;28;20148;-77
2022/09/13 10:22:28;;;;;;;2.97;1.00;;;25.10;99.90;;;;;;5031240;28;20087;-77
2022/09/13 10:24:54;;;;;;;2.13;1.10;;;25.30;99.90;;;;;;5031156;28;20026;-77
2022/09/13 10:27:30;;;;;;;3.15;1.00;;;25.40;99.90;;;;;;5030775;28;20029;-77
2022/09/13 10:29:59;;;;;;;1.30;0.80;;;25.40;99.90;;;;;;5030975;28;20123;-77
2022/09/13 10:32:27;;;;;;;3.55;1.13;;;25.40;99.90;;;;;;5030291;28;20510;-77
2022/09/13 10:34:54;;;;;;;3.17;1.10;;;25.50;99.90;;;;;;5030797;28;20112;-77
2022/09/13 10:37:32;;;;;;;2.00;0.90;;;25.60;99.90;;;;;;5030142;28;20018;-77
2022/09/13 10:40:08;;;;;;;2.00;1.20;;;25.90;99.90;;;;;;5030255;28;20026;-77
2022/09/13 10:42:34;;;;;;;2.17;0.90;;;26.10;99.90;;;;;;5030224;28;20359;-77
2022/09/13 10:45:08;;;;;;;4.35;1.15;;;26.20;99.90;;;;;;5029825;28;20505;-76
2022/09/13 10:47:48;;;;;;;2.25;1.10;;;26.40;99.90;;;;;;5030143;28;20033;-77
2022/09/13 10:50:21;;;;;;;3.20;0.70;;;26.60;99.90;;;;;;5030106;28;20034;-77
2022/09/13 10:52:52;;;;;;;4.03;0.98;;;26.70;99.90;;;;;;5029569;28;20033;-77
2022/09/13 10:55:17;;;;;;;2.10;1.00;;;26.80;99.90;;;;;;5029627;28;20064;-77
2022/09/13 10:57:44;;;;;;;4.13;1.40;;;26.90;99.90;;;;;;5030236;28;20037;-77
2022/09/13 11:00:12;;;;;;;2.10;0.90;;;26.90;99.90;;;;;;5031108;28;20022;-77
2022/09/13 11:02:47;;;;;;;2.45;1.30;;;26.90;99.90;;;;;;5029461;28;20107;-77
2022/09/13 11:05:29;;;;;;;1.48;0.85;;;27.00;99.90;;;;;;5029870;28;20614;-77
2022/09/13 11:07:57;;;;;;;5.07;1.25;;;27.10;99.90;;;;;;5029800;28;20026;-77
2022/09/13 11:10:35;;;;;;;1.95;1.10;;;27.20;99.90;;;;;;5030253;28;20079;-77
2022/09/13 11:13:20;;;;;;;2.65;1.02;;;27.50;99.90;;;;;;5029593;28;20061;-77
2022/09/13 11:16:23;;;;;;;1.77;0.70;;;27.70;99.90;;;;;;5030340;28;20025;-77
2022/09/13 11:19:16;;;;;;;6.78;1.02;;;27.80;99.90;;;;;;5029399;28;20040;-77
2022/09/13 11:22:08;;;;;;;4.40;1.10;;;27.80;99.90;;;;;;5029504;28;20027;-77
2022/09/13 11:25:12;;;;;;;2.60;0.90;;;28.00;99.90;;;;;;5029644;28;20028;-77
2022/09/13 11:28:14;;;;;;;1.70;0.93;;;28.10;99.90;;;;;;5026853;28;20025;-77
2022/09/13 11:31:06;;;;;;;1.98;0.90;;;28.20;99.90;;;;;;5027126;28;20148;-77
2022/09/13 11:33:54;;;;;;;2.28;1.00;;;28.10;99.90;;;;;;5028690;28;20084;-77
2022/09/13 11:36:32;;;;;;;3.03;0.70;;;28.00;99.90;;;;;;5029638;28;20037;-77
2022/09/13 11:39:16;;;;;;;3.42;1.15;;;27.90;99.90;;;;;;5029470;28;20036;-77
2022/09/13 11:41:56;;;;;;;1.77;0.90;;;27.60;99.90;;;;;;5029225;28;20502;-77
2022/09/13 11:44:32;;;;;;;2.25;1.05;;;27.50;99.90;;;;;;5028943;28;20104;-77
2022/09/13 11:47:30;;;;;;;3.60;1.00;;;27.30;99.90;;;;;;5028835;28;20033;-77
2022/09/13 11:50:06;;;;;;;2.17;0.75;;;27.00;99.90;;;;;;5029463;28;20056;-77
2022/09/13 11:52:56;;;;;;;1.15;0.75;;;26.80;99.90;;;;;;5029066;28;20033;-77
2022/09/13 11:55:46;;;;;;;3.70;0.95;;;26.60;99.90;;;;;;5027797;28;20041;-77
2022/09/13 11:58:16;;;;;;;1.65;0.88;;;26.60;99.90;;;;;;5028626;28;20042;-77
2022/09/13 12:00:46;;;;;;;3.30;0.95;;;26.40;99.90;;;;;;5029935;28;20064;-77
2022/09/13 12:03:25;;;;;;;5.85;0.80;;;26.30;99.90;;;;;;5029280;28;20037;-77
2022/09/13 12:05:55;;;;;;;1.23;0.90;;;26.20;99.90;;;;;;5028675;28;20037;-77
2022/09/13 12:09:00;;;;;;;1.92;0.80;;;26.30;99.90;;;;;;5029164;28;20566;-77
2022/09/13 12:11:41;;;;;;;3.63;0.85;;;26.30;99.90;;;;;;5025776;28;20516;-77
2022/09/13 12:14:16;;;;;;;3.30;1.10;;;26.70;99.90;;;;;;5028341;28;20048;-77
2022/09/13 12:16:49;;;;;;;2.35;0.95;;;27.10;99.90;;;;;;5028595;28;20031;-77
2022/09/13 12:19:49;;;;;;;1.27;1.00;;;27.70;99.90;;;;;;5029566;28;20721;-77
2022/09/13 12:22:17;;;;;;;2.80;0.80;;;28.50;99.90;;;;;;5026487;28;20061;-77
2022/09/13 12:24:50;;;;;;;0.85;0.60;;;28.90;99.90;;;;;;5028592;28;20029;-77
2022/09/13 12:27:27;;;;;;;1.40;0.82;;;29.30;99.90;;;;;;5028779;28;20474;-77
2022/09/13 12:29:54;;;;;;;2.50;0.80;;;29.60;99.50;;;;;;5028915;28;20394;-77
2022/09/13 12:32:20;;;;;;;5.85;0.85;;;29.50;99.90;;;;;;5028267;28;20041;-77
2022/09/13 12:34:49;;;;;;;2.05;0.80;;;29.70;98.00;;;;;;5026956;28;20029;-77
2022/09/13 12:37:35;;;;;;;1.25;0.77;;;29.70;97.50;;;;;;5029107;28;20025;-77
2022/09/13 12:40:44;;;;;;;3.75;1.00;;;29.70;96.60;;;;;;5028563;28;20037;-77
2022/09/13 12:43:22;;;;;;;1.83;0.70;;;29.40;98.70;;;;;;5025736;28;20555;-77
2022/09/13 12:45:51;;;;;;;3.17;0.77;;;29.50;97.70;;;;;;5027799;28;20045;-77
2022/09/13 12:48:26;;;;;;;2.33;1.00;;;29.60;96.70;;;;;;5028226;28;20482;-77
2022/09/13 12:51:04;;;;;;;2.53;0.70;;;29.70;96.50;;;;;;5028559;28;20044;-77
2022/09/13 12:53:58;;;;;;;3.08;1.33;;;29.60;97.40;;;;;;5027728;28;20459;-77
2022/09/13 12:56:30;;;;;;;6.15;0.90;;;29.60;96.90;;;;;;5026272;28;20080;-77
2022/09/13 12:59:38;;;;;;;2.67;0.77;;;29.50;96.70;;;;;;5028249;28;20060;-77
2022/09/13 13:02:25;;;;;;;0.75;0.60;;;29.30;96.00;;;;;;5027369;28;20072;-77
2022/09/13 13:04:54;;;;;;;3.55;1.00;;;29.40;96.00;;;;;;5028050;28;20036;-77
2022/09/13 13:07:22;;;;;;;1.23;0.82;;;29.30;96.70;;;;;;5027913;28;20033;-77
2022/09/13 13:09:52;;;;;;;5.93;1.17;;;29.00;96.40;;;;;;5028142;28;20088;-77
2022/09/13 13:12:33;;;;;;;2.00;0.80;;;29.00;96.00;;;;;;5027678;28;20398;-77
2022/09/13 13:15:24;;;;;;;1.23;0.85;;;28.90;97.10;;;;;;5027736;28;20469;-77
2022/09/13 13:17:54;;;;;;;2.35;0.68;;;29.10;97.50;;;;;;5026336;28;20207;-78
2022/09/13 13:20:50;;;;;;;3.22;0.90;;;29.40;95.80;;;;;;5029525;28;20021;-78